Time;durP1;ratioP1;P1;durP2;ratioP2;P2;SDS_P1;SDS_P2;PMS_P1;PMS_P2;Temp;Humidity;BMP_temperature;BMP_pressure;BME280_temperature;BME280_humidity;BME280_pressure;Samples;Min_cycle;Max_cycle;Signal;HPM_P1;HPM_P2
2021/10/21 00:02:41;;;;;;;;;;;13.10;99.90;;;;;;8461455;28;19904;-67
2021/10/21 00:06:42;;;;;;;;;;;13.00;99.90;;;;;;8460039;28;19904;-66
2021/10/21 00:10:45;;;;;;;;;;;13.10;99.90;;;;;;8451255;28;19908;-66
2021/10/21 00:14:46;;;;;;;;;;;13.00;99.90;;;;;;8452868;28;19943;-66
2021/10/21 00:18:49;;;;;;;;;;;12.90;99.90;;;;;;8458638;28;20406;-66
2021/10/21 00:22:49;;;;;;;;;;;12.80;99.90;;;;;;8439779;28;19904;-66
2021/10/21 00:26:50;;;;;;;;;;;12.70;99.90;;;;;;8439432;28;19912;-66
2021/10/21 00:30:50;;;;;;;;;;;12.50;99.90;;;;;;8459818;28;20294;-66
2021/10/21 00:34:50;;;;;;;;;;;12.60;99.90;;;;;;8441513;28;19904;-66
2021/10/21 00:38:51;;;;;;;;;;;12.60;99.90;;;;;;8440659;28;20024;-66
2021/10/21 00:42:51;;;;;;;;;;;12.30;99.90;;;;;;8459388;28;19904;-66
2021/10/21 00:46:54;;;;;;;;;;;12.20;99.90;;;;;;8457984;28;19911;-66
2021/10/21 00:50:54;;;;;;;;;;;12.10;99.90;;;;;;8458903;28;19908;-66
2021/10/21 00:54:55;;;;;;;;;;;12.10;99.90;;;;;;8457444;28;20389;-66
2021/10/21 00:58:56;;;;;;;;;;;12.10;99.90;;;;;;8456674;28;20291;-66
2021/10/21 01:02:56;;;;;;;;;;;12.30;99.90;;;;;;8457969;28;19943;-66
2021/10/21 01:06:57;;;;;;;;;;;12.20;99.90;;;;;;8457363;28;19981;-66
2021/10/21 01:10:58;;;;;;;;;;;12.30;99.90;;;;;;8457018;28;19970;-67
2021/10/21 01:15:13;;;;;;;;;;;12.20;99.90;;;;;;8458058;28;20439;-67
2021/10/21 01:19:14;;;;;;;;;;;12.00;99.90;;;;;;8439453;28;20371;-66
2021/10/21 01:23:15;;;;;;;;;;;12.20;99.90;;;;;;8457308;28;19907;-67
2021/10/21 01:27:15;;;;;;;;;;;12.00;99.90;;;;;;8439335;28;19977;-66
2021/10/21 01:31:16;;;;;;;;;;;12.10;99.90;;;;;;8456887;28;19908;-66
2021/10/21 01:35:16;;;;;;;;;;;12.10;99.90;;;;;;8457084;28;20360;-66
2021/10/21 01:39:17;;;;;;;;;;;12.00;99.90;;;;;;8437986;28;20379;-66
2021/10/21 01:43:17;;;;;;;;;;;12.20;99.90;;;;;;8459158;28;19941;-66
2021/10/21 01:47:18;;;;;;;;;;;12.20;99.90;;;;;;8455652;28;20291;-66
2021/10/21 01:51:18;;;;;;;;;;;12.60;99.90;;;;;;8438218;28;19959;-67
2021/10/21 01:55:19;;;;;;;;;;;12.90;99.90;;;;;;8456864;28;20454;-67
2021/10/21 01:59:20;;;;;;;;;;;13.10;99.90;;;;;;8439368;28;20382;-66
2021/10/21 02:03:20;;;;;;;;;;;12.90;99.90;;;;;;8456624;28;19903;-66
2021/10/21 02:07:20;;;;;;;;;;;12.70;99.90;;;;;;8457755;28;19904;-66
2021/10/21 02:11:21;;;;;;;;;;;12.80;99.90;;;;;;8458320;28;19966;-66
2021/10/21 02:15:22;;;;;;;;;;;12.90;99.90;;;;;;8463752;28;19903;-66
2021/10/21 02:19:22;;;;;;;;;;;13.00;99.90;;;;;;8446039;28;19904;-66
2021/10/21 02:23:23;;;;;;;;;;;13.00;99.90;;;;;;8462963;28;19942;-66
2021/10/21 02:27:23;;;;;;;;;;;13.00;99.90;;;;;;8463685;28;19911;-66
2021/10/21 02:31:24;;;;;;;;;;;13.20;99.90;;;;;;8444375;28;19907;-66
2021/10/21 02:35:24;;;;;;;;;;;13.30;99.90;;;;;;8463352;28;19903;-66
2021/10/21 02:39:24;;;;;;;;;;;13.30;99.90;;;;;;8461946;28;19960;-66
2021/10/21 02:43:25;;;;;;;;;;;13.30;99.90;;;;;;8442090;28;20480;-66
2021/10/21 02:47:26;;;;;;;;;;;13.10;99.90;;;;;;8461156;28;19999;-66
2021/10/21 02:51:26;;;;;;;;;;;13.10;99.90;;;;;;8461502;28;19915;-66
2021/10/21 02:55:27;;;;;;;;;;;13.20;99.90;;;;;;8461455;28;20220;-65
2021/10/21 02:59:27;;;;;;;;;;;13.30;99.90;;;;;;8499083;22;20029;-64
2021/10/21 03:03:27;;;;;;;;;;;13.30;99.90;;;;;;8496833;27;20483;-63
2021/10/21 03:07:28;;;;;;;;;;;13.30;99.90;;;;;;8478787;27;20003;-63
2021/10/21 03:11:28;;;;;;;;;;;13.20;99.90;;;;;;8459954;27;19922;-63
2021/10/21 03:15:29;;;;;;;;;;;13.10;99.90;;;;;;8460377;27;19961;-63
2021/10/21 03:19:29;;;;;;;;;;;12.90;99.90;;;;;;8478313;27;19917;-63
2021/10/21 03:23:30;;;;;;;;;;;12.80;99.90;;;;;;8468653;27;19914;-63
2021/10/21 03:27:30;;;;;;;;;;;12.70;99.90;;;;;;8475422;27;19916;-63
2021/10/21 03:31:31;;;;;;;;;;;12.60;99.90;;;;;;8460867;28;20402;-63
2021/10/21 03:35:32;;;;;;;;;;;12.60;99.90;;;;;;8460266;28;20006;-63
2021/10/21 03:39:32;;;;;;;;;;;12.60;99.90;;;;;;8475247;27;19903;-63
2021/10/21 03:43:32;;;;;;;;;;;12.60;99.90;;;;;;8495502;27;20409;-63
2021/10/21 03:47:33;;;;;;;;;;;12.90;99.90;;;;;;8495391;27;19947;-63
2021/10/21 03:51:33;;;;;;;;;;;13.00;99.90;;;;;;8495298;27;20185;-63
2021/10/21 03:55:34;;;;;;;;;;;13.00;99.90;;;;;;8495945;27;20256;-64
2021/10/21 03:59:34;;;;;;;;;;;13.00;99.90;;;;;;8448873;28;19995;-63
2021/10/21 04:03:35;;;;;;;;;;;13.20;99.90;;;;;;8460420;28;19910;-64
2021/10/21 04:07:35;;;;;;;;;;;13.30;99.90;;;;;;8475870;27;19908;-64
2021/10/21 04:11:36;;;;;;;;;;;13.40;99.90;;;;;;8492958;27;19933;-63
2021/10/21 04:15:36;;;;;;;;;;;13.50;99.90;;;;;;8492643;27;19954;-64
2021/10/21 04:19:37;;;;;;;;;;;13.50;99.90;;;;;;8445747;28;20356;-64
2021/10/21 04:23:38;;;;;;;;;;;13.60;99.90;;;;;;8440310;28;19957;-63
2021/10/21 04:27:38;;;;;;;;;;;13.60;99.90;;;;;;8462348;27;19911;-63
2021/10/21 04:31:39;;;;;;;;;;;13.70;99.90;;;;;;8466391;27;20281;-63
2021/10/21 04:35:39;;;;;;;;;;;13.70;99.90;;;;;;8459641;28;20086;-64
2021/10/21 04:39:39;;;;;;;;;;;13.80;99.90;;;;;;8468252;27;20329;-64
2021/10/21 04:43:40;;;;;;;;;;;13.80;99.90;;;;;;8485580;27;19908;-64
2021/10/21 04:47:40;;;;;;;;;;;13.70;99.90;;;;;;8488492;27;19915;-65
2021/10/21 04:51:41;;;;;;;;;;;13.50;99.90;;;;;;8468916;27;19926;-64
2021/10/21 04:55:41;;;;;;;;;;;13.40;99.90;;;;;;8466194;27;20010;-65
2021/10/21 04:59:42;;;;;;;;;;;13.40;99.90;;;;;;8478801;27;19937;-65
2021/10/21 05:03:42;;;;;;;;;;;13.30;99.90;;;;;;8458996;27;19907;-65
2021/10/21 05:07:43;;;;;;;;;;;13.10;99.90;;;;;;8476044;27;19907;-65
2021/10/21 05:11:43;;;;;;;;;;;12.90;99.90;;;;;;8465673;27;19922;-66
2021/10/21 05:15:44;;;;;;;;;;;12.50;99.90;;;;;;8458654;28;20298;-65
2021/10/21 05:19:44;;;;;;;;;;;12.30;99.90;;;;;;8457813;28;19904;-65
2021/10/21 05:23:45;;;;;;;;;;;12.10;99.90;;;;;;8456837;28;19910;-65
2021/10/21 05:27:45;;;;;;;;;;;12.00;99.90;;;;;;8457514;28;19903;-65
2021/10/21 05:31:46;;;;;;;;;;;12.00;99.90;;;;;;8458510;28;19908;-65
2021/10/21 05:35:46;;;;;;;;;;;12.00;99.90;;;;;;8483045;28;19911;-64
2021/10/21 05:39:47;;;;;;;;;;;12.00;99.90;;;;;;8473807;28;19907;-65
2021/10/21 05:43:47;;;;;;;;;;;12.00;99.90;;;;;;8453915;28;19935;-64
2021/10/21 05:47:48;;;;;;;;;;;11.90;99.90;;;;;;8460451;28;20406;-65
2021/10/21 05:51:48;;;;;;;;;;;11.90;99.90;;;;;;8461902;28;19911;-65
2021/10/21 05:55:49;;;;;;;;;;;12.00;99.90;;;;;;8462430;28;19968;-65
2021/10/21 05:59:49;;;;;;;;;;;12.00;99.90;;;;;;8461226;28;19911;-65
2021/10/21 06:03:50;;;;;;;;;;;12.00;99.90;;;;;;8462615;28;19910;-65
2021/10/21 06:07:50;;;;;;;;;;;12.00;99.90;;;;;;8444005;28;20401;-65
2021/10/21 06:11:51;;;;;;;;;;;12.00;99.90;;;;;;8463760;28;20006;-64
2021/10/21 06:15:51;;;;;;;;;;;12.00;99.90;;;;;;8463990;28;19915;-65
2021/10/21 06:19:52;;;;;;;;;;;12.00;99.90;;;;;;8446061;28;19912;-65
2021/10/21 06:23:53;;;;;;;;;;;12.00;99.90;;;;;;8462530;28;19918;-64
2021/10/21 06:27:55;;;;;;;;;;;12.00;99.90;;;;;;8462759;28;19907;-65
2021/10/21 06:31:56;;;;;;;;;;;12.00;99.90;;;;;;8463433;28;20329;-65
2021/10/21 06:35:56;;;;;;;;;;;12.00;99.90;;;;;;8460880;28;19961;-64
2021/10/21 06:39:57;;;;;;;;;;;12.00;99.90;;;;;;8462952;28;20387;-65
2021/10/21 06:43:57;;;;;;;;;;;12.10;99.90;;;;;;8463010;28;19907;-65
2021/10/21 06:47:58;;;;;;;;;;;12.10;99.90;;;;;;8462468;28;19911;-64
2021/10/21 06:51:58;;;;;;;;;;;12.10;99.90;;;;;;8460768;28;20286;-64
2021/10/21 06:55:59;;;;;;;;;;;12.10;99.90;;;;;;8441583;28;19965;-64
2021/10/21 07:00:00;;;;;;;;;;;12.20;99.90;;;;;;8443427;28;19903;-65
2021/10/21 07:04:03;;;;;;;;;;;12.20;99.90;;;;;;8460973;28;19907;-65
2021/10/21 07:08:03;;;;;;;;;;;12.20;99.90;;;;;;8460515;28;19907;-65
2021/10/21 07:12:04;;;;;;;;;;;12.30;99.90;;;;;;8461465;28;20357;-64
2021/10/21 07:16:05;;;;;;;;;;;12.40;99.90;;;;;;8461969;28;19918;-66
2021/10/21 07:20:06;;;;;;;;;;;12.30;99.90;;;;;;8442333;28;19911;-65
2021/10/21 07:24:07;;;;;;;;;;;12.20;99.90;;;;;;8461973;28;19929;-65
2021/10/21 07:28:07;;;;;;;;;;;12.20;99.90;;;;;;8462159;28;20002;-65
2021/10/21 07:32:08;;;;;;;;;;;12.20;99.90;;;;;;8443396;28;20161;-65
2021/10/21 07:36:08;;;;;;;;;;;12.20;99.90;;;;;;8462267;28;19911;-66
2021/10/21 07:40:10;;;;;;;;;;;12.30;99.90;;;;;;8443082;28;19918;-66
2021/10/21 07:44:10;;;;;;;;;;;12.50;99.90;;;;;;8461639;28;20419;-65
2021/10/21 07:48:11;;;;;;;;;;;12.40;99.90;;;;;;8458419;28;19915;-65
2021/10/21 07:52:13;;;;;;;;;;;12.50;99.90;;;;;;8461321;28;20034;-65
2021/10/21 07:56:14;;;;;;;;;;;12.50;99.90;;;;;;8461881;28;20016;-65
2021/10/21 08:00:14;;;;;;;;;;;12.70;99.90;;;;;;8459741;28;19907;-65
2021/10/21 08:04:15;;;;;;;;;;;12.70;99.90;;;;;;8467973;27;19903;-65
2021/10/21 08:08:15;;;;;;;;;;;12.70;99.90;;;;;;8493972;27;19935;-66
2021/10/21 08:12:16;;;;;;;;;;;12.70;99.90;;;;;;8475589;27;20390;-66
2021/10/21 08:16:16;;;;;;;;;;;12.90;99.90;;;;;;8493252;27;19998;-65
2021/10/21 08:20:17;;;;;;;;;;;13.20;99.90;;;;;;8494165;27;19949;-65
2021/10/21 08:24:19;;;;;;;;;;;13.20;99.90;;;;;;8494503;27;19904;-66
2021/10/21 08:28:19;;;;;;;;;;;13.10;99.90;;;;;;8456458;28;19926;-65
2021/10/21 08:32:20;;;;;;;;;;;13.00;99.90;;;;;;8439715;28;19907;-65
2021/10/21 08:36:21;;;;;;;;;;;13.20;99.90;;;;;;8459059;28;19904;-66
2021/10/21 08:40:22;;;;;;;;;;;13.30;99.90;;;;;;8438712;28;19976;-65
2021/10/21 08:44:22;;;;;;;;;;;13.60;99.90;;;;;;8458143;28;20366;-65
2021/10/21 08:48:23;;;;;;;;;;;13.80;99.90;;;;;;8458023;28;20016;-65
2021/10/21 08:52:24;;;;;;;;;;;13.90;99.90;;;;;;8457403;28;19943;-65
2021/10/21 08:56:25;;;;;;;;;;;13.90;99.90;;;;;;8478401;22;19927;-66
2021/10/21 09:00:25;;;;;;;;;;;13.80;99.90;;;;;;8421175;28;19916;-66
2021/10/21 09:08:26;;;;;;;;;;;14.00;99.90;;;;;;8424070;28;20287;-66
2021/10/21 09:12:37;;;;;;;;;;;13.80;99.90;;;;;;8424595;28;19930;-66
2021/10/21 09:16:39;;;;;;;;;;;13.90;99.90;;;;;;8424416;28;20327;-67
2021/10/21 09:20:41;;;;;;;;;;;14.10;99.90;;;;;;8426093;28;19904;-67
2021/10/21 09:24:42;;;;;;;;;;;14.00;99.90;;;;;;8431605;28;19904;-66
2021/10/21 09:28:42;;;;;;;;;;;14.00;99.90;;;;;;8429100;28;19927;-67
2021/10/21 09:32:42;;;;;;;;;;;14.10;99.90;;;;;;8429987;28;19912;-66
2021/10/21 09:36:43;;;;;;;;;;;14.00;99.90;;;;;;8427014;28;20012;-66
2021/10/21 09:40:44;;;;;;;;;;;14.00;99.90;;;;;;8430868;28;19904;-66
2021/10/21 09:44:45;;;;;;;;;;;13.80;99.90;;;;;;8432086;28;19938;-66
2021/10/21 09:48:45;;;;;;;;;;;14.10;99.90;;;;;;8430851;28;19915;-66
2021/10/21 09:53:01;;;;;;;;;;;14.30;99.90;;;;;;8424907;28;20049;-67
2021/10/21 09:57:03;;;;;;;;;;;14.40;99.90;;;;;;8403792;28;20153;-66
2021/10/21 10:01:10;;;;;;;;;;;14.40;99.90;;;;;;8430056;28;19922;-66
2021/10/21 10:05:14;;;;;;;;;;;14.30;99.90;;;;;;8424523;28;19965;-66
2021/10/21 10:09:15;;;;;;;;;;;14.60;99.90;;;;;;8429509;28;19951;-66
2021/10/21 10:13:16;;;;;;;;;;;15.30;99.90;;;;;;8429568;28;19908;-66
2021/10/21 10:17:17;;;;;;;;;;;15.00;99.90;;;;;;8430503;28;19908;-67
2021/10/21 10:21:25;;;;;;;;;;;15.10;99.90;;;;;;8430366;28;19908;-67
2021/10/21 10:25:26;;;;;;;;;;;15.20;99.90;;;;;;8428645;28;20278;-66
2021/10/21 10:29:32;;;;;;;;;;;16.20;99.90;;;;;;8425416;28;19923;-66
2021/10/21 10:33:33;;;;;;;;;;;15.80;99.90;;;;;;8417965;28;20045;-66
2021/10/21 10:37:37;;;;;;;;;;;15.90;99.90;;;;;;8429424;28;19904;-66
2021/10/21 10:41:45;;;;;;;;;;;17.60;99.90;;;;;;8429350;28;19994;-66
2021/10/21 10:45:49;;;;;;;;;;;19.20;99.90;;;;;;8410746;28;20364;-66
2021/10/21 10:49:50;;;;;;;;;;;18.80;97.90;;;;;;8424706;28;19912;-66
2021/10/21 10:53:51;;;;;;;;;;;19.10;96.00;;;;;;8427377;28;20283;-66
2021/10/21 10:57:56;;;;;;;;;;;18.40;97.00;;;;;;8426278;28;19965;-66
2021/10/21 11:02:01;;;;;;;;;;;19.50;95.40;;;;;;8426897;28;19907;-67
2021/10/21 11:06:04;;;;;;;;;;;20.50;92.50;;;;;;8425163;28;19915;-67
2021/10/21 11:10:15;;;;;;;;;;;22.50;87.30;;;;;;8421865;28;20056;-67
2021/10/21 11:14:17;;;;;;;;;;;21.20;82.60;;;;;;8427512;28;19904;-67
2021/10/21 11:18:21;;;;;;;;;;;20.40;83.00;;;;;;8423528;28;19958;-67
2021/10/21 11:22:22;;;;;;;;;;;21.50;81.50;;;;;;8425798;28;19907;-67
2021/10/21 11:26:23;;;;;;;;;;;21.20;82.70;;;;;;8427214;28;19911;-66
2021/10/21 11:30:31;;;;;;;;;;;20.90;81.70;;;;;;8422319;28;20336;-67
2021/10/21 11:34:32;;;;;;;;;;;19.40;84.70;;;;;;8425500;28;19958;-66
2021/10/21 11:38:33;;;;;;;;;;;19.10;84.90;;;;;;8425472;28;20410;-66
2021/10/21 11:46:59;;;;;;;;;;;20.20;82.00;;;;;;8422808;28;19927;-66
2021/10/21 11:51:03;;;;;;;;;;;19.60;83.00;;;;;;8425153;28;19908;-66
2021/10/21 11:55:04;;;;;;;;;;;21.60;75.60;;;;;;8424892;28;19908;-66
2021/10/21 11:59:04;;;;;;;;;;;21.10;72.50;;;;;;8425883;28;19911;-67
2021/10/21 12:03:05;;;;;;;;;;;20.90;72.40;;;;;;8427567;28;19904;-66
2021/10/21 12:07:06;;;;;;;;;;;20.60;72.60;;;;;;8428115;28;19904;-67
2021/10/21 12:11:07;;;;;;;;;;;21.80;72.60;;;;;;8413086;28;19912;-67
2021/10/21 12:15:08;;;;;;;;;;;21.50;71.00;;;;;;8392268;28;20367;-66
2021/10/21 12:19:09;;;;;;;;;;;20.90;71.70;;;;;;8406729;28;19908;-66
2021/10/21 12:23:11;;;;;;;;;;;20.60;71.60;;;;;;8426582;28;20281;-65
2021/10/21 12:27:24;;;;;;;;;;;21.30;70.80;;;;;;8425152;28;19999;-65
2021/10/21 12:31:28;;;;;;;;;;;22.10;69.00;;;;;;8426752;28;19919;-65
2021/10/21 12:35:29;;;;;;;;;;;23.70;60.50;;;;;;8427085;28;19992;-65
2021/10/21 12:39:32;;;;;;;;;;;22.60;59.90;;;;;;8425844;28;19908;-65
2021/10/21 12:43:33;;;;;;;;;;;22.20;64.20;;;;;;8426853;28;19904;-65
2021/10/21 12:47:37;;;;;;;;;;;21.90;62.60;;;;;;8398602;28;19915;-65
2021/10/21 12:51:41;;;;;;;;;;;22.60;61.50;;;;;;8403485;28;19919;-66
2021/10/21 12:55:42;;;;;;;;;;;24.20;58.20;;;;;;8427573;28;19911;-65
2021/10/21 12:59:42;;;;;;;;;;;21.90;61.20;;;;;;8426583;28;20363;-65
2021/10/21 13:03:43;;;;;;;;;;;20.80;64.10;;;;;;8426301;28;19938;-65
2021/10/21 13:07:44;;;;;;;;;;;21.90;62.80;;;;;;8425408;28;19904;-65
2021/10/21 13:11:44;;;;;;;;;;;24.80;55.90;;;;;;8426308;28;20309;-66
2021/10/21 13:15:45;;;;;;;;;;;26.10;54.00;;;;;;8424335;28;19907;-66
2021/10/21 13:19:46;;;;;;;;;;;25.70;53.60;;;;;;8425687;28;20304;-66
2021/10/21 13:23:47;;;;;;;;;;;27.00;53.10;;;;;;8424982;28;19908;-66
2021/10/21 13:27:47;;;;;;;;;;;25.50;51.60;;;;;;8424491;28;20324;-66
2021/10/21 13:31:48;;;;;;;;;;;24.90;54.80;;;;;;8425452;28;19916;-66
2021/10/21 13:35:49;;;;;;;;;;;26.00;51.20;;;;;;8425015;28;19911;-66
2021/10/21 13:39:49;;;;;;;;;;;25.90;52.50;;;;;;8425049;28;19904;-66
2021/10/21 13:43:50;;;;;;;;;;;25.70;51.70;;;;;;8424128;28;20428;-66
2021/10/21 13:47:50;;;;;;;;;;;23.80;54.90;;;;;;8425888;28;19904;-65
2021/10/21 13:51:51;;;;;;;;;;;20.20;62.20;;;;;;8423515;28;19915;-65
2021/10/21 13:55:52;;;;;;;;;;;18.30;69.30;;;;;;8424314;28;19904;-65
2021/10/21 13:59:53;;;;;;;;;;;17.40;72.90;;;;;;8425467;28;19912;-65
2021/10/21 14:03:53;;;;;;;;;;;17.00;75.70;;;;;;8425426;28;19911;-65
2021/10/21 14:07:54;;;;;;;;;;;17.40;73.10;;;;;;8428634;28;19990;-65
2021/10/21 14:11:54;;;;;;;;;;;16.80;75.30;;;;;;8422006;28;19913;-65
2021/10/21 14:15:55;;;;;;;;;;;16.20;76.70;;;;;;8422820;28;19908;-65
2021/10/21 14:19:55;;;;;;;;;;;15.90;76.50;;;;;;8430003;28;19915;-65
2021/10/21 14:23:56;;;;;;;;;;;15.90;79.80;;;;;;8431593;28;19919;-65
2021/10/21 14:27:56;;;;;;;;;;;15.80;81.30;;;;;;8430330;28;19904;-65
2021/10/21 14:31:57;;;;;;;;;;;15.50;82.80;;;;;;8423056;28;19931;-65
2021/10/21 14:35:58;;;;;;;;;;;15.30;83.30;;;;;;8430060;28;19930;-65
2021/10/21 14:39:59;;;;;;;;;;;15.50;84.00;;;;;;8429167;28;19904;-65
2021/10/21 14:44:00;;;;;;;;;;;15.20;83.90;;;;;;8430310;28;19957;-65
2021/10/21 14:48:01;;;;;;;;;;;15.20;84.20;;;;;;8430050;28;19911;-65
2021/10/21 14:52:01;;;;;;;;;;;15.30;84.60;;;;;;8427895;28;19919;-65
2021/10/21 14:56:02;;;;;;;;;;;15.10;86.30;;;;;;8429849;28;20002;-65
2021/10/21 15:00:04;;;;;;;;;;;14.80;86.90;;;;;;8432518;22;19924;-64
2021/10/21 15:04:08;;;;;;;;;;;14.60;87.60;;;;;;8412906;28;19904;-65
2021/10/21 15:12:35;;;;;;;;;;;14.40;90.40;;;;;;8395885;28;19912;-65
2021/10/21 15:24:54;;;;;;;;;;;14.00;89.70;;;;;;8395512;28;21014;-65
2021/10/21 15:28:55;;;;;;;;;;;13.90;90.50;;;;;;8393264;28;19916;-65
2021/10/21 15:32:56;;;;;;;;;;;13.90;89.40;;;;;;8395456;28;20372;-65
2021/10/21 15:36:57;;;;;;;;;;;13.80;88.20;;;;;;8394204;28;20302;-65
2021/10/21 15:40:57;;;;;;;;;;;13.70;88.50;;;;;;8395401;28;19909;-65
2021/10/21 15:45:16;;;;;;;;;;;13.60;88.90;;;;;;8394394;28;20276;-65
2021/10/21 16:15:05;;;;;;;;;;;12.90;90.40;;;;;;8374993;28;20125;-65
2021/10/21 16:19:07;;;;;;;;;;;12.70;91.40;;;;;;8386396;28;19950;-65
2021/10/21 16:23:11;;;;;;;;;;;12.60;91.00;;;;;;8391353;28;19908;-64
2021/10/21 16:27:19;;;;;;;;;;;12.50;91.80;;;;;;8383347;28;19912;-65
2021/10/21 16:31:19;;;;;;;;;;;12.40;92.10;;;;;;8354722;28;19917;-65
2021/10/21 16:35:19;;;;;;;;;;;12.30;92.70;;;;;;8368395;28;20391;-64
2021/10/21 16:39:21;;;;;;;;;;;12.20;93.00;;;;;;8373995;28;19909;-64
2021/10/21 16:43:22;;;;;;;;;;;12.10;93.70;;;;;;8380846;28;19922;-64
2021/10/21 16:47:22;;;;;;;;;;;12.00;93.80;;;;;;8382924;28;19908;-65
2021/10/21 16:51:23;;;;;;;;;;;12.00;94.10;;;;;;8384640;28;20186;-64
2021/10/21 16:55:24;;;;;;;;;;;12.00;94.50;;;;;;8384216;28;20392;-65
2021/10/21 16:59:25;;;;;;;;;;;11.90;94.90;;;;;;8384868;28;19920;-64
2021/10/21 17:03:26;;;;;;;;;;;11.80;95.00;;;;;;8377870;28;20257;-65
2021/10/21 17:07:28;;;;;;;;;;;11.80;95.50;;;;;;8386735;28;20011;-64
2021/10/21 17:11:29;;;;;;;;;;;11.70;95.90;;;;;;8387669;28;20280;-64
2021/10/21 17:15:29;;;;;;;;;;;11.70;95.70;;;;;;8388299;28;19943;-64
2021/10/21 17:19:30;;;;;;;;;;;11.70;96.30;;;;;;8388206;28;20410;-64
2021/10/21 17:23:32;;;;;;;;;;;11.70;96.50;;;;;;8388057;28;19916;-64
2021/10/21 17:27:32;;;;;;;;;;;11.60;96.80;;;;;;8388284;28;19904;-64
2021/10/21 17:31:33;;;;;;;;;;;11.50;97.40;;;;;;8387703;28;19922;-64
2021/10/21 17:35:33;;;;;;;;;;;11.40;98.00;;;;;;8388177;28;19908;-64
2021/10/21 17:39:34;;;;;;;;;;;11.10;99.20;;;;;;8386453;28;19912;-65
2021/10/21 17:43:38;;;;;;;;;;;11.00;99.60;;;;;;8391511;28;19991;-65
2021/10/21 17:47:39;;;;;;;;;;;10.70;99.90;;;;;;8387081;28;19912;-66
2021/10/21 17:51:40;;;;;;;;;;;10.60;99.90;;;;;;8393024;28;19963;-67
2021/10/21 17:55:40;;;;;;;;;;;10.70;99.90;;;;;;8394442;28;19909;-66
2021/10/21 17:59:41;;;;;;;;;;;10.80;99.90;;;;;;8393993;28;20403;-67
2021/10/21 18:03:41;;;;;;;;;;;10.80;99.90;;;;;;8394531;28;19912;-66
2021/10/21 18:07:42;;;;;;;;;;;10.80;99.90;;;;;;8391761;28;19934;-65
2021/10/21 18:11:44;;;;;;;;;;;10.80;99.90;;;;;;8392090;28;19923;-66
2021/10/21 18:15:46;;;;;;;;;;;10.70;99.90;;;;;;8394236;28;19970;-66
2021/10/21 18:19:46;;;;;;;;;;;10.90;99.90;;;;;;8385751;28;19919;-66
2021/10/21 18:23:47;;;;;;;;;;;11.00;99.90;;;;;;8382576;28;20333;-66
2021/10/21 18:27:49;;;;;;;;;;;10.90;99.90;;;;;;8387580;28;19905;-65
2021/10/21 18:31:50;;;;;;;;;;;11.00;99.90;;;;;;8390947;28;19912;-66
2021/10/21 18:35:54;;;;;;;;;;;11.00;99.90;;;;;;8393451;28;19912;-66
2021/10/21 18:39:56;;;;;;;;;;;11.20;99.90;;;;;;8391751;28;19930;-65
2021/10/21 18:43:56;;;;;;;;;;;11.30;99.90;;;;;;8393180;28;20348;-65
2021/10/21 18:47:57;;;;;;;;;;;11.40;99.90;;;;;;8376390;28;19954;-65
2021/10/21 18:51:57;;;;;;;;;;;11.50;99.90;;;;;;8399183;28;19916;-65
2021/10/21 18:55:58;;;;;;;;;;;11.60;99.90;;;;;;8385343;28;19912;-65
2021/10/21 18:59:58;;;;;;;;;;;11.70;99.90;;;;;;8387759;28;19916;-65
2021/10/21 19:03:59;;;;;;;;;;;11.70;99.90;;;;;;8391548;28;19999;-66
2021/10/21 19:07:59;;;;;;;;;;;11.70;99.90;;;;;;8382901;28;20364;-66
2021/10/21 19:12:00;;;;;;;;;;;11.60;99.90;;;;;;8381124;28;20391;-65
2021/10/21 19:16:01;;;;;;;;;;;11.70;99.90;;;;;;8388204;28;19918;-65
2021/10/21 19:20:04;;;;;;;;;;;11.70;99.90;;;;;;8385014;28;19951;-65
2021/10/21 19:24:05;;;;;;;;;;;11.70;99.90;;;;;;8380755;28;20010;-65
2021/10/21 19:28:05;;;;;;;;;;;11.60;99.90;;;;;;8382206;28;20431;-65
2021/10/21 19:32:06;;;;;;;;;;;11.60;99.90;;;;;;8382564;28;19916;-65
2021/10/21 19:36:07;;;;;;;;;;;11.60;99.90;;;;;;8390690;28;20140;-65
2021/10/21 19:40:08;;;;;;;;;;;11.60;99.90;;;;;;8383890;28;20300;-65
2021/10/21 19:44:09;;;;;;;;;;;11.60;99.90;;;;;;8384138;28;19908;-65
2021/10/21 19:48:10;;;;;;;;;;;11.60;99.90;;;;;;8380472;28;19931;-65
2021/10/21 19:52:12;;;;;;;;;;;11.60;99.90;;;;;;8379402;28;20407;-65
2021/10/21 19:56:14;;;;;;;;;;;11.50;99.90;;;;;;8381240;28;19939;-65
2021/10/21 20:00:15;;;;;;;;;;;11.50;99.90;;;;;;8383711;28;19916;-65
2021/10/21 20:04:16;;;;;;;;;;;11.60;99.90;;;;;;8384303;28;19909;-66
2021/10/21 20:08:16;;;;;;;;;;;11.60;99.90;;;;;;8389623;28;19909;-66
2021/10/21 20:12:19;;;;;;;;;;;11.60;99.90;;;;;;8387596;28;20295;-66
2021/10/21 20:16:24;;;;;;;;;;;11.60;99.90;;;;;;8386780;28;20316;-65
2021/10/21 20:20:25;;;;;;;;;;;11.70;99.90;;;;;;8388254;28;19912;-66
2021/10/21 20:24:26;;;;;;;;;;;11.70;99.90;;;;;;8389025;28;20554;-66
2021/10/21 20:28:26;;;;;;;;;;;11.70;99.90;;;;;;8387679;28;19912;-66
2021/10/21 20:32:27;;;;;;;;;;;11.70;99.90;;;;;;8387884;28;19912;-66
2021/10/21 20:36:27;;;;;;;;;;;11.70;99.90;;;;;;8387239;28;19931;-66
2021/10/21 20:40:27;;;;;;;;;;;11.70;99.90;;;;;;8388522;28;19908;-66
2021/10/21 20:44:28;;;;;;;;;;;11.70;99.90;;;;;;8389135;28;20261;-66
2021/10/21 20:48:28;;;;;;;;;;;11.70;99.90;;;;;;8388790;28;19912;-65
2021/10/21 20:52:31;;;;;;;;;;;11.70;99.90;;;;;;8387448;28;19916;-65
2021/10/21 20:56:32;;;;;;;;;;;11.70;99.90;;;;;;8387894;28;19912;-66
2021/10/21 21:00:32;;;;;;;;;;;11.70;99.90;;;;;;8389793;22;19928;-65
2021/10/21 21:04:36;;;;;;;;;;;11.80;99.90;;;;;;8387678;28;19915;-66
2021/10/21 21:08:36;;;;;;;;;;;11.80;99.90;;;;;;8374087;28;19908;-65
2021/10/21 21:12:37;;;;;;;;;;;11.80;99.90;;;;;;8393181;28;19916;-65
2021/10/21 21:16:37;;;;;;;;;;;11.70;99.90;;;;;;8393251;28;20280;-66
2021/10/21 21:20:40;;;;;;;;;;;11.70;99.90;;;;;;8393103;28;20379;-65
2021/10/21 21:24:41;;;;;;;;;;;11.60;99.90;;;;;;8393279;28;19909;-66
2021/10/21 21:28:41;;;;;;;;;;;11.50;99.90;;;;;;8392803;28;19950;-66
2021/10/21 21:32:41;;;;;;;;;;;11.20;99.90;;;;;;8375075;28;19985;-66
2021/10/21 21:36:42;;;;;;;;;;;11.00;99.90;;;;;;8393011;28;19931;-66
2021/10/21 21:40:43;;;;;;;;;;;11.00;99.90;;;;;;8393293;28;19909;-66
2021/10/21 21:44:44;;;;;;;;;;;11.00;99.90;;;;;;8392993;28;20540;-66
2021/10/21 21:48:45;;;;;;;;;;;10.90;99.90;;;;;;8374657;28;19904;-65
2021/10/21 21:52:45;;;;;;;;;;;10.70;99.90;;;;;;8392530;28;19908;-65
2021/10/21 21:56:50;;;;;;;;;;;10.30;99.90;;;;;;8374788;28;19909;-66
2021/10/21 22:00:50;;;;;;;;;;;10.10;99.90;;;;;;8391067;28;19920;-66
2021/10/21 22:04:51;;;;;;;;;;;10.00;99.90;;;;;;8389717;28;19904;-66
2021/10/21 22:08:51;;;;;;;;;;;10.00;99.90;;;;;;8389264;28;19905;-66
2021/10/21 22:12:52;;;;;;;;;;;10.10;99.90;;;;;;8371714;28;20342;-66
2021/10/21 22:16:54;;;;;;;;;;;10.20;99.90;;;;;;8391296;28;19916;-66
2021/10/21 22:20:57;;;;;;;;;;;10.30;99.90;;;;;;8374336;28;19973;-66
2021/10/21 22:24:58;;;;;;;;;;;10.30;99.90;;;;;;8392162;28;20380;-66
2021/10/21 22:28:58;;;;;;;;;;;10.40;99.90;;;;;;8395081;28;19905;-66
2021/10/21 22:32:59;;;;;;;;;;;10.40;99.90;;;;;;8379987;28;19904;-66
2021/10/21 22:36:59;;;;;;;;;;;10.50;99.90;;;;;;8398054;28;20376;-66
2021/10/21 22:41:00;;;;;;;;;;;10.40;99.90;;;;;;8397753;28;19912;-66
2021/10/21 22:45:00;;;;;;;;;;;10.40;99.90;;;;;;8397596;28;19905;-66
2021/10/21 22:49:00;;;;;;;;;;;10.50;99.90;;;;;;8397029;28;19950;-66
2021/10/21 22:53:01;;;;;;;;;;;10.50;99.90;;;;;;8397424;28;19905;-66
2021/10/21 22:57:02;;;;;;;;;;;10.40;99.90;;;;;;8379170;28;19991;-66
2021/10/21 23:01:05;;;;;;;;;;;10.40;99.90;;;;;;8397128;28;19908;-66
2021/10/21 23:05:06;;;;;;;;;;;10.40;99.90;;;;;;8397084;28;20280;-66
2021/10/21 23:09:06;;;;;;;;;;;10.40;99.90;;;;;;8396540;28;19912;-66
2021/10/21 23:13:08;;;;;;;;;;;10.40;99.90;;;;;;8396725;28;19950;-66
2021/10/21 23:17:10;;;;;;;;;;;10.50;99.90;;;;;;8378490;28;19908;-66
2021/10/21 23:21:11;;;;;;;;;;;10.40;99.90;;;;;;8378529;28;19911;-66
2021/10/21 23:25:11;;;;;;;;;;;10.40;99.90;;;;;;8396380;28;19905;-66
2021/10/21 23:29:12;;;;;;;;;;;10.40;99.90;;;;;;8378009;28;20295;-65
2021/10/21 23:33:12;;;;;;;;;;;10.40;99.90;;;;;;8396330;28;19915;-66
2021/10/21 23:37:13;;;;;;;;;;;10.40;99.90;;;;;;8395995;28;19904;-66
2021/10/21 23:41:14;;;;;;;;;;;10.40;99.90;;;;;;8394667;28;19905;-66
2021/10/21 23:45:15;;;;;;;;;;;10.40;99.90;;;;;;8395721;28;19908;-66
2021/10/21 23:49:16;;;;;;;;;;;10.50;99.90;;;;;;8395345;28;19912;-65
2021/10/21 23:53:16;;;;;;;;;;;10.40;99.90;;;;;;8377565;28;20006;-65
2021/10/21 23:57:16;;;;;;;;;;;10.40;99.90;;;;;;8394971;28;20368;-66
